createdAt,value
2018-03-03T00:00:36.686Z,48.34
2018-03-03T00:01:36.843Z,47.86
2018-03-03T00:02:36.981Z,47.86
2018-03-03T00:03:37.133Z,47.77
2018-03-03T00:04:37.285Z,47.67
2018-03-03T00:05:37.438Z,48.52
2018-03-03T00:06:37.598Z,49.09
2018-03-03T00:07:37.728Z,48.81
2018-03-03T00:08:37.882Z,49.38
2018-03-03T00:09:38.037Z,50.51
2018-03-03T00:10:38.193Z,49.47
2018-03-03T00:11:38.339Z,49.28
2018-03-03T00:12:38.491Z,49.38
2018-03-03T00:13:38.643Z,49.00
2018-03-03T00:14:38.792Z,49.66
2018-03-03T00:15:38.946Z,48.90
2018-03-03T00:16:39.092Z,48.71
2018-03-03T00:17:39.247Z,49.09
2018-03-03T00:18:39.406Z,50.23
2018-03-03T00:19:39.551Z,49.28
2018-03-03T00:20:39.699Z,49.57
2018-03-03T00:21:39.846Z,49.38
2018-03-03T00:22:40.011Z,49.47
2018-03-03T00:23:40.160Z,49.76
2018-03-03T00:24:40.313Z,49.66
2018-03-03T00:25:40.469Z,49.47
2018-03-03T00:26:40.618Z,49.47
2018-03-03T00:27:40.769Z,48.90
2018-03-03T00:28:40.922Z,48.52
2018-03-03T00:29:41.073Z,48.34
2018-03-03T00:30:41.235Z,48.24
2018-03-03T00:31:41.374Z,49.09
2018-03-03T00:32:41.527Z,49.09
2018-03-03T00:33:41.677Z,49.19
2018-03-03T00:34:41.837Z,48.71
2018-03-03T00:35:41.989Z,48.43
2018-03-03T00:36:42.181Z,49.09
2018-03-03T00:37:42.334Z,49.19
2018-03-03T00:38:42.483Z,49.19
2018-03-03T00:39:42.636Z,48.43
2018-03-03T00:40:42.790Z,49.19
2018-03-03T00:41:42.943Z,49.00
2018-03-03T00:42:43.074Z,49.00
2018-03-03T00:43:43.232Z,49.19
2018-03-03T00:44:43.380Z,50.32
2018-03-03T00:45:43.534Z,50.32
2018-03-03T00:46:43.686Z,50.42
2018-03-03T00:47:43.842Z,49.57
2018-03-03T00:48:43.990Z,49.28
2018-03-03T00:49:44.134Z,49.28
2018-03-03T00:50:44.293Z,49.47
2018-03-03T00:51:44.451Z,49.57
2018-03-03T00:52:44.594Z,49.28
2018-03-03T00:53:44.744Z,49.57
2018-03-03T00:54:44.900Z,49.09
2018-03-03T00:55:45.048Z,49.38
2018-03-03T00:56:45.203Z,49.66
2018-03-03T00:57:45.348Z,49.38
2018-03-03T00:58:45.499Z,49.66
2018-03-03T00:59:45.647Z,48.52
2018-03-03T01:00:45.810Z,48.62
2018-03-03T01:01:45.959Z,48.90
2018-03-03T01:02:46.109Z,48.71
2018-03-03T01:03:46.261Z,49.38
2018-03-03T01:04:46.414Z,49.19
2018-03-03T01:05:46.564Z,49.00
2018-03-03T01:06:46.708Z,49.00
2018-03-03T01:07:46.864Z,48.81
2018-03-03T01:08:47.015Z,49.00
2018-03-03T01:09:47.168Z,48.90
2018-03-03T01:10:47.319Z,49.19
2018-03-03T01:11:47.471Z,48.81
2018-03-03T01:12:47.623Z,48.90
2018-03-03T01:13:47.780Z,48.34
2018-03-03T01:14:47.926Z,49.19
2018-03-03T01:15:48.080Z,49.57
2018-03-03T01:16:48.230Z,49.09
2018-03-03T01:17:48.386Z,48.43
2018-03-03T01:18:48.538Z,48.81
2018-03-03T01:19:48.691Z,49.09
2018-03-03T01:20:48.839Z,49.57
2018-03-03T01:21:48.993Z,49.38
2018-03-03T01:22:49.145Z,49.38
2018-03-03T01:23:49.299Z,49.38
2018-03-03T01:24:49.460Z,48.71
2018-03-03T01:25:49.610Z,49.47
2018-03-03T01:26:49.764Z,49.76
2018-03-03T01:27:49.971Z,50.42
2018-03-03T01:28:50.068Z,50.42
2018-03-03T01:29:50.219Z,50.32
2018-03-03T01:30:50.371Z,50.32
2018-03-03T01:31:50.524Z,50.32
2018-03-03T01:32:50.682Z,50.04
2018-03-03T01:33:50.825Z,50.13
2018-03-03T01:34:50.979Z,50.13
2018-03-03T01:35:51.141Z,50.13
2018-03-03T01:36:51.294Z,49.85
2018-03-03T01:37:51.446Z,50.23
2018-03-03T01:38:51.597Z,50.42
2018-03-03T01:39:51.753Z,50.13
2018-03-03T01:40:51.898Z,50.60
2018-03-03T01:41:52.050Z,50.51
2018-03-03T01:42:52.201Z,50.23
2018-03-03T01:43:52.359Z,50.32
2018-03-03T01:44:52.510Z,50.42
2018-03-03T01:45:52.663Z,50.60
2018-03-03T01:46:52.816Z,50.32
2018-03-03T01:47:52.965Z,50.04
2018-03-03T01:48:53.115Z,50.13
2018-03-03T01:49:53.264Z,50.23
2018-03-03T01:50:53.423Z,49.57
2018-03-03T01:51:53.576Z,49.19
2018-03-03T01:52:53.719Z,50.23
2018-03-03T01:53:53.873Z,50.13
2018-03-03T01:54:54.023Z,50.51
2018-03-03T01:55:54.175Z,50.23
2018-03-03T01:56:54.330Z,49.66
2018-03-03T01:57:54.477Z,49.38
2018-03-03T01:58:54.628Z,49.66
2018-03-03T01:59:54.783Z,50.60
2018-03-03T02:00:54.943Z,50.23
2018-03-03T02:01:55.092Z,50.42
2018-03-03T02:02:55.246Z,49.47
2018-03-03T02:03:55.407Z,49.66
2018-03-03T02:04:55.547Z,49.47
2018-03-03T02:05:55.700Z,49.66
2018-03-03T02:06:55.854Z,49.57
2018-03-03T02:07:56.010Z,50.13
2018-03-03T02:08:56.157Z,50.51
2018-03-03T02:09:56.313Z,50.79
2018-03-03T02:10:56.464Z,50.42
2018-03-03T02:11:56.616Z,50.89
2018-03-03T02:12:56.769Z,51.26
2018-03-03T02:13:56.912Z,50.98
2018-03-03T02:14:57.070Z,50.60
2018-03-03T02:15:57.230Z,51.07
2018-03-03T02:16:57.372Z,50.23
2018-03-03T02:17:57.526Z,50.23
2018-03-03T02:18:57.714Z,50.98
2018-03-03T02:19:57.836Z,51.17
2018-03-03T02:20:57.987Z,51.54
2018-03-03T02:21:58.138Z,50.89
2018-03-03T02:22:58.289Z,51.07
2018-03-03T02:23:58.441Z,50.32
2018-03-03T02:24:58.594Z,50.60
2018-03-03T02:25:58.742Z,51.26
2018-03-03T02:26:58.896Z,51.07
2018-03-03T02:27:59.055Z,50.42
2018-03-03T02:28:59.199Z,50.42
2018-03-03T02:29:59.350Z,50.04
2018-03-03T02:30:59.503Z,49.85
2018-03-03T02:31:59.662Z,49.38
2018-03-03T02:32:59.808Z,50.32
2018-03-03T02:33:59.964Z,50.42
2018-03-03T02:35:00.117Z,50.42
2018-03-03T02:36:00.267Z,50.23
2018-03-03T02:37:00.420Z,49.66
2018-03-03T02:38:00.568Z,49.38
2018-03-03T02:39:00.722Z,50.13
2018-03-03T02:40:00.889Z,50.42
2018-03-03T02:41:01.024Z,50.32
2018-03-03T02:42:01.174Z,50.13
2018-03-03T02:43:01.322Z,50.23
2018-03-03T02:44:01.474Z,50.23
2018-03-03T02:45:01.642Z,50.23
2018-03-03T02:46:01.775Z,50.60
2018-03-03T02:47:01.930Z,50.70
2018-03-03T02:48:02.082Z,51.07
2018-03-03T02:49:02.238Z,51.26
2018-03-03T02:50:02.390Z,51.92
2018-03-03T02:51:02.544Z,52.11
2018-03-03T02:52:02.701Z,52.02
2018-03-03T02:53:02.846Z,52.11
2018-03-03T02:54:02.997Z,52.49
2018-03-03T02:55:03.176Z,52.21
2018-03-03T02:56:03.329Z,52.02
2018-03-03T02:57:03.484Z,52.21
2018-03-03T02:58:03.636Z,52.68
2018-03-03T02:59:03.784Z,52.68
2018-03-03T03:00:03.945Z,52.49
2018-03-03T03:01:04.092Z,52.30
2018-03-03T03:02:04.248Z,52.78
2018-03-03T03:03:04.391Z,52.02
2018-03-03T03:04:04.541Z,52.11
2018-03-03T03:05:04.695Z,52.68
2018-03-03T03:06:04.844Z,53.53
2018-03-03T03:07:04.993Z,53.34
2018-03-03T03:08:05.144Z,53.44
2018-03-03T03:09:05.297Z,53.34
2018-03-03T03:10:05.448Z,52.30
2018-03-03T03:11:05.604Z,52.78
2018-03-03T03:12:05.749Z,53.25
2018-03-03T03:13:05.901Z,53.44
2018-03-03T03:14:06.052Z,53.53
2018-03-03T03:15:06.209Z,53.34
2018-03-03T03:16:06.359Z,53.53
2018-03-03T03:17:06.512Z,53.53
2018-03-03T03:18:06.665Z,53.72
2018-03-03T03:19:06.818Z,53.81
2018-03-03T03:20:06.970Z,54.85
2018-03-03T03:21:07.115Z,55.51
2018-03-03T03:22:07.273Z,56.17
2018-03-03T03:23:07.430Z,56.27
2018-03-03T03:24:07.572Z,56.17
2018-03-03T03:25:07.724Z,56.46
2018-03-03T03:26:07.877Z,55.89
2018-03-03T03:27:08.037Z,56.17
2018-03-03T03:28:08.188Z,56.27
2018-03-03T03:29:08.339Z,56.93
2018-03-03T03:30:08.495Z,57.50
2018-03-03T03:31:08.645Z,57.31
2018-03-03T03:32:08.794Z,57.31
2018-03-03T03:33:08.979Z,57.87
2018-03-03T03:34:09.088Z,58.53
2018-03-03T03:35:09.240Z,59.19
2018-03-03T03:36:09.391Z,58.91
2018-03-03T03:37:09.541Z,58.91
2018-03-03T03:38:09.694Z,59.48
2018-03-03T03:39:09.837Z,59.00
2018-03-03T03:40:09.992Z,60.42
2018-03-03T03:41:10.141Z,60.14
2018-03-03T03:42:10.295Z,60.80
2018-03-03T03:43:10.443Z,62.21
2018-03-03T03:44:10.596Z,62.50
2018-03-03T03:45:10.751Z,62.88
2018-03-03T03:46:10.907Z,62.88
2018-03-03T03:47:11.051Z,62.88
2018-03-03T03:48:11.201Z,62.59
2018-03-03T03:49:11.352Z,62.31
2018-03-03T03:50:11.504Z,62.78
2018-03-03T03:51:11.650Z,62.88
2018-03-03T03:52:11.804Z,63.07
2018-03-03T03:53:11.957Z,63.45
2018-03-03T03:54:12.107Z,63.35
2018-03-03T03:55:12.265Z,63.35
2018-03-03T03:56:12.410Z,63.35
2018-03-03T03:57:12.558Z,63.82
2018-03-03T03:58:12.710Z,64.20
2018-03-03T03:59:12.870Z,64.76
2018-03-03T04:00:13.018Z,64.86
2018-03-03T04:01:13.174Z,65.14
2018-03-03T04:02:13.324Z,64.58
2018-03-03T04:03:13.477Z,65.23
2018-03-03T04:04:13.670Z,65.61
2018-03-03T04:05:13.776Z,65.33
2018-03-03T04:06:13.930Z,65.61
2018-03-03T04:07:14.081Z,65.99
2018-03-03T04:08:14.229Z,66.37
2018-03-03T04:09:14.380Z,66.94
2018-03-03T04:10:14.532Z,66.65
2018-03-03T04:11:14.687Z,66.28
2018-03-03T04:12:14.831Z,66.65
2018-03-03T04:13:14.980Z,65.99
2018-03-03T04:14:15.131Z,66.47
2018-03-03T04:15:15.277Z,66.37
2018-03-03T04:16:15.433Z,66.75
2018-03-03T04:17:15.582Z,66.84
2018-03-03T04:18:15.735Z,66.37
2018-03-03T04:19:15.886Z,66.18
2018-03-03T04:20:16.032Z,66.56
2018-03-03T04:21:16.189Z,66.18
2018-03-03T04:22:16.345Z,66.56
2018-03-03T04:23:16.498Z,66.47
2018-03-03T04:24:16.641Z,66.56
2018-03-03T04:25:16.787Z,66.37
2018-03-03T04:26:16.940Z,66.84
2018-03-03T04:27:17.099Z,67.41
2018-03-03T04:28:17.240Z,68.07
2018-03-03T04:29:17.392Z,67.88
2018-03-03T04:30:17.543Z,67.97
2018-03-03T04:31:17.694Z,67.69
2018-03-03T04:32:17.851Z,68.35
2018-03-03T04:33:17.995Z,68.16
2018-03-03T04:34:18.138Z,68.73
2018-03-03T04:35:18.299Z,68.07
2018-03-03T04:36:18.456Z,68.07
2018-03-03T04:37:18.606Z,67.69
2018-03-03T04:38:18.758Z,67.41
2018-03-03T04:39:18.913Z,67.79
2018-03-03T04:40:19.059Z,68.16
2018-03-03T04:41:19.209Z,68.26
2018-03-03T04:42:19.362Z,68.73
2018-03-03T04:43:19.513Z,68.32
2018-03-03T04:44:19.665Z,68.88
2018-03-03T04:45:19.816Z,68.79
2018-03-03T04:46:19.967Z,68.32
2018-03-03T04:47:20.121Z,68.88
2018-03-03T04:48:20.269Z,68.88
2018-03-03T04:49:20.430Z,69.35
2018-03-03T04:50:20.568Z,69.73
2018-03-03T04:51:20.721Z,68.79
2018-03-03T04:52:20.866Z,69.64
2018-03-03T04:53:21.021Z,69.54
2018-03-03T04:54:21.178Z,69.83
2018-03-03T04:55:21.322Z,69.83
2018-03-03T04:56:21.473Z,71.15
2018-03-03T04:57:21.623Z,70.49
2018-03-03T04:58:21.778Z,71.06
2018-03-03T04:59:21.930Z,71.19
2018-03-03T05:00:22.075Z,70.62
2018-03-03T05:01:22.230Z,70.62
2018-03-03T05:02:22.371Z,69.58
2018-03-03T05:03:22.537Z,70.05
2018-03-03T05:04:22.690Z,70.34
2018-03-03T05:05:22.837Z,70.43
2018-03-03T05:06:22.984Z,70.15
2018-03-03T05:07:23.135Z,69.58
2018-03-03T05:08:23.292Z,68.82
2018-03-03T05:09:23.440Z,68.92
2018-03-03T05:10:23.595Z,69.01
2018-03-03T05:11:23.745Z,69.77
2018-03-03T05:12:23.897Z,69.01
2018-03-03T05:13:24.049Z,69.77
2018-03-03T05:14:24.193Z,70.49
2018-03-03T05:15:24.350Z,70.96
2018-03-03T05:16:24.509Z,70.87
2018-03-03T05:17:24.652Z,71.37
2018-03-03T05:18:24.800Z,71.94
2018-03-03T05:19:24.951Z,71.94
2018-03-03T05:20:25.104Z,71.84
2018-03-03T05:21:25.262Z,71.06
2018-03-03T05:22:25.413Z,70.68
2018-03-03T05:23:25.555Z,72.00
2018-03-03T05:24:25.710Z,71.62
2018-03-03T05:25:25.866Z,71.91
2018-03-03T05:26:26.018Z,72.09
2018-03-03T05:27:26.169Z,71.72
2018-03-03T05:28:26.374Z,72.19
2018-03-03T05:29:26.472Z,72.38
2018-03-03T05:30:26.622Z,72.47
2018-03-03T05:31:26.771Z,73.03
2018-03-03T05:32:26.924Z,73.51
2018-03-03T05:33:27.076Z,73.88
2018-03-03T05:34:27.222Z,73.22
2018-03-03T05:35:27.373Z,73.88
2018-03-03T05:36:27.554Z,73.32
2018-03-03T05:37:27.679Z,73.51
2018-03-03T05:38:27.830Z,73.69
2018-03-03T05:39:27.978Z,74.07
2018-03-03T05:40:28.129Z,74.26
2018-03-03T05:41:28.281Z,74.26
2018-03-03T05:42:28.431Z,74.55
2018-03-03T05:43:28.582Z,74.55
2018-03-03T05:44:28.730Z,74.45
2018-03-03T05:45:28.881Z,74.45
2018-03-03T05:46:29.033Z,74.74
2018-03-03T05:47:29.184Z,74.74
2018-03-03T05:48:29.342Z,74.45
2018-03-03T05:49:29.483Z,74.77
2018-03-03T05:50:29.867Z,74.55
2018-03-03T05:51:29.782Z,74.83
2018-03-03T05:52:29.936Z,74.68
2018-03-03T05:53:30.094Z,74.64
2018-03-03T05:54:30.236Z,74.77
2018-03-03T05:55:30.388Z,74.49
2018-03-03T05:56:30.538Z,74.49
2018-03-03T05:57:30.692Z,74.77
2018-03-03T05:58:30.852Z,74.77
2018-03-03T05:59:30.991Z,74.96
2018-03-03T06:00:31.141Z,74.58
2018-03-03T06:01:31.285Z,74.30
2018-03-03T06:02:31.452Z,74.21
2018-03-03T06:03:31.617Z,73.93
2018-03-03T06:04:31.742Z,74.30
2018-03-03T06:05:31.893Z,74.11
2018-03-03T06:06:32.045Z,74.49
2018-03-03T06:07:32.204Z,74.58
2018-03-03T06:08:32.351Z,74.02
2018-03-03T06:09:32.507Z,74.21
2018-03-03T06:10:32.658Z,74.21
2018-03-03T06:11:32.809Z,73.45
2018-03-03T06:12:32.961Z,73.36
2018-03-03T06:13:33.112Z,72.88
2018-03-03T06:14:33.263Z,73.17
2018-03-03T06:15:33.414Z,72.88
2018-03-03T06:16:33.565Z,73.45
2018-03-03T06:17:33.718Z,73.55
2018-03-03T06:18:33.867Z,74.21
2018-03-03T06:19:34.018Z,73.74
2018-03-03T06:20:34.179Z,73.74
2018-03-03T06:21:34.318Z,74.02
2018-03-03T06:22:34.468Z,74.02
2018-03-03T06:23:34.620Z,74.30
2018-03-03T06:24:34.769Z,74.40
2018-03-03T06:25:34.928Z,74.40
2018-03-03T06:26:35.078Z,74.58
2018-03-03T06:27:35.213Z,74.40
2018-03-03T06:28:35.367Z,74.49
2018-03-03T06:29:35.508Z,74.77
2018-03-03T06:30:35.679Z,74.30
2018-03-03T06:31:35.822Z,74.11
2018-03-03T06:32:35.975Z,74.30
2018-03-03T06:33:36.119Z,74.58
2018-03-03T06:34:36.275Z,74.49
2018-03-03T06:35:36.431Z,74.58
2018-03-03T06:36:36.574Z,74.49
2018-03-03T06:37:36.727Z,73.93
2018-03-03T06:38:36.878Z,74.21
2018-03-03T06:39:37.038Z,74.96
2018-03-03T06:40:37.187Z,74.36
2018-03-03T06:41:37.340Z,74.92
2018-03-03T06:42:37.491Z,74.92
2018-03-03T06:43:37.641Z,75.02
2018-03-03T06:44:37.794Z,75.68
2018-03-03T06:45:37.945Z,75.78
2018-03-03T06:46:38.096Z,75.87
2018-03-03T06:47:38.247Z,76.15
2018-03-03T06:48:38.396Z,75.30
2018-03-03T06:49:38.547Z,75.02
2018-03-03T06:50:38.707Z,75.68
2018-03-03T06:51:38.868Z,75.21
2018-03-03T06:52:39.017Z,74.92
2018-03-03T06:53:39.165Z,75.30
2018-03-03T06:54:39.319Z,75.02
2018-03-03T06:55:39.467Z,75.02
2018-03-03T06:56:39.618Z,74.92
2018-03-03T06:57:39.773Z,74.36
2018-03-03T06:58:39.920Z,74.64
2018-03-03T06:59:40.072Z,75.11
2018-03-03T07:00:40.241Z,74.74
2018-03-03T07:01:40.371Z,74.74
2018-03-03T07:02:40.518Z,76.43
2018-03-03T07:03:40.672Z,77.56
2018-03-03T07:04:40.824Z,78.13
2018-03-03T07:05:40.972Z,78.60
2018-03-03T07:06:41.122Z,79.17
2018-03-03T07:07:41.315Z,79.08
2018-03-03T07:08:41.425Z,79.08
2018-03-03T07:09:41.574Z,79.55
2018-03-03T07:10:41.727Z,79.64
2018-03-03T07:11:41.877Z,79.27
2018-03-03T07:12:42.028Z,79.36
2018-03-03T07:13:42.179Z,78.89
2018-03-03T07:14:42.330Z,79.55
2018-03-03T07:15:42.479Z,78.98
2018-03-03T07:16:42.630Z,78.23
2018-03-03T07:17:42.781Z,77.75
2018-03-03T07:18:42.934Z,76.76
2018-03-03T07:19:43.090Z,76.66
2018-03-03T07:20:43.233Z,76.19
2018-03-03T07:21:43.384Z,75.05
2018-03-03T07:22:43.527Z,74.96
2018-03-03T07:23:43.686Z,74.68
2018-03-03T07:24:43.843Z,74.96
2018-03-03T07:25:43.985Z,74.87
2018-03-03T07:26:44.136Z,73.88
2018-03-03T07:27:44.288Z,73.88
2018-03-03T07:28:44.453Z,74.49
2018-03-03T07:29:44.595Z,74.68
2018-03-03T07:30:44.736Z,74.11
2018-03-03T07:31:44.888Z,74.87
2018-03-03T07:32:45.032Z,74.87
2018-03-03T07:33:45.190Z,74.68
2018-03-03T07:34:45.347Z,74.68
2018-03-03T07:35:45.489Z,74.30
2018-03-03T07:36:45.640Z,73.64
2018-03-03T07:37:45.785Z,73.07
2018-03-03T07:38:45.939Z,73.55
2018-03-03T07:39:46.101Z,73.45
2018-03-03T07:40:46.241Z,72.88
2018-03-03T07:41:46.391Z,72.88
2018-03-03T07:42:46.545Z,73.07
2018-03-03T07:43:46.692Z,72.88
2018-03-03T07:44:46.850Z,73.64
2018-03-03T07:45:46.992Z,73.07
2018-03-03T07:46:47.143Z,72.98
2018-03-03T07:47:47.296Z,73.74
2018-03-03T07:48:47.445Z,73.45
2018-03-03T07:49:47.603Z,73.74
2018-03-03T07:50:47.746Z,74.11
2018-03-03T07:51:47.898Z,74.21
2018-03-03T07:52:48.051Z,73.36
2018-03-03T07:53:48.208Z,73.64
2018-03-03T07:54:48.358Z,72.98
2018-03-03T07:55:48.510Z,73.17
2018-03-03T07:56:48.668Z,72.41
2018-03-03T07:57:48.813Z,72.60
2018-03-03T07:58:48.964Z,73.07
2018-03-03T07:59:49.115Z,73.45
2018-03-03T08:00:49.267Z,73.26
2018-03-03T08:01:49.418Z,72.41
2018-03-03T08:02:49.568Z,72.32
2018-03-03T08:03:49.719Z,72.41
2018-03-03T08:04:49.867Z,73.55
2018-03-03T08:05:50.023Z,73.64
2018-03-03T08:06:50.179Z,74.21
2018-03-03T08:07:50.353Z,73.74
2018-03-03T08:08:50.465Z,73.45
2018-03-03T08:09:50.615Z,73.64
2018-03-03T08:10:50.768Z,73.64
2018-03-03T08:11:50.919Z,73.64
2018-03-03T08:12:51.123Z,73.36
2018-03-03T08:13:51.224Z,72.41
2018-03-03T08:14:51.371Z,72.51
2018-03-03T08:15:51.529Z,72.98
2018-03-03T08:16:51.683Z,72.41
2018-03-03T08:17:51.827Z,71.84
2018-03-03T08:18:51.979Z,71.94
2018-03-03T08:19:52.130Z,72.69
2018-03-03T08:20:52.318Z,73.83
2018-03-03T08:21:52.439Z,73.64
2018-03-03T08:22:52.592Z,73.64
2018-03-03T08:23:52.744Z,73.07
2018-03-03T08:24:52.897Z,72.13
2018-03-03T08:25:53.048Z,71.94
2018-03-03T08:26:53.199Z,72.51
2018-03-03T08:27:53.350Z,73.17
2018-03-03T08:28:53.510Z,73.55
2018-03-03T08:29:53.652Z,74.21
2018-03-03T08:30:53.804Z,74.11
2018-03-03T08:31:53.955Z,74.58
2018-03-03T08:32:54.114Z,73.55
2018-03-03T08:33:54.266Z,72.41
2018-03-03T08:34:54.418Z,73.17
2018-03-03T08:35:54.569Z,71.56
2018-03-03T08:36:54.720Z,71.19
2018-03-03T08:37:54.912Z,70.90
2018-03-03T08:38:55.065Z,71.37
2018-03-03T08:39:55.215Z,71.94
2018-03-03T08:40:55.362Z,71.66
2018-03-03T08:41:55.516Z,70.90
2018-03-03T08:42:55.668Z,70.90
2018-03-03T08:43:55.868Z,71.50
2018-03-03T08:44:55.977Z,71.50
2018-03-03T08:45:56.121Z,71.60
2018-03-03T08:46:56.274Z,70.37
2018-03-03T08:47:56.424Z,69.52
2018-03-03T08:48:56.582Z,68.95
2018-03-03T08:49:56.735Z,69.62
2018-03-03T08:50:56.886Z,70.09
2018-03-03T08:51:57.038Z,69.14
2018-03-03T08:52:57.197Z,69.05
2018-03-03T08:53:57.341Z,68.57
2018-03-03T08:54:57.494Z,68.39
2018-03-03T08:55:57.649Z,69.52
2018-03-03T08:56:57.803Z,70.00
2018-03-03T08:57:57.945Z,70.37
2018-03-03T08:58:58.097Z,70.09
2018-03-03T08:59:58.252Z,69.62
2018-03-03T09:00:58.410Z,69.24
2018-03-03T09:01:58.566Z,69.71
2018-03-03T09:02:58.715Z,69.43
2018-03-03T09:03:58.876Z,69.24
2018-03-03T09:04:59.018Z,69.05
2018-03-03T09:05:59.173Z,68.95
2018-03-03T09:06:59.323Z,68.57
2018-03-03T09:07:59.486Z,68.29
2018-03-03T09:08:59.638Z,67.07
2018-03-03T09:09:59.792Z,67.07
2018-03-03T09:10:59.949Z,67.57
2018-03-03T09:12:00.092Z,67.38
2018-03-03T09:13:00.244Z,67.66
2018-03-03T09:14:00.397Z,67.38
2018-03-03T09:15:00.556Z,66.44
2018-03-03T09:16:00.711Z,66.03
2018-03-03T09:17:00.864Z,67.38
2018-03-03T09:18:01.050Z,67.76
2018-03-03T09:19:01.203Z,67.38
2018-03-03T09:20:01.356Z,67.29
2018-03-03T09:21:01.508Z,67.00
2018-03-03T09:22:01.664Z,66.91
2018-03-03T09:23:01.812Z,66.35
2018-03-03T09:24:01.964Z,66.35
2018-03-03T09:25:02.118Z,67.19
2018-03-03T09:26:02.272Z,67.95
2018-03-03T09:27:02.426Z,67.95
2018-03-03T09:28:02.578Z,67.57
2018-03-03T09:29:02.739Z,68.01
2018-03-03T09:30:02.921Z,67.76
2018-03-03T09:31:03.035Z,68.42
2018-03-03T09:32:03.189Z,68.71
2018-03-03T09:33:03.347Z,68.71
2018-03-03T09:34:03.494Z,67.76
2018-03-03T09:35:03.651Z,68.04
2018-03-03T09:36:03.816Z,67.70
2018-03-03T09:37:03.956Z,67.10
2018-03-03T09:38:04.106Z,66.72
2018-03-03T09:39:04.261Z,66.00
2018-03-03T09:40:04.418Z,66.38
2018-03-03T09:41:04.571Z,66.47
2018-03-03T09:42:04.725Z,65.30
2018-03-03T09:43:04.884Z,64.83
2018-03-03T09:44:05.029Z,65.40
2018-03-03T09:45:05.183Z,65.68
2018-03-03T09:46:05.360Z,66.53
2018-03-03T09:47:05.497Z,67.19
2018-03-03T09:48:05.645Z,67.22
2018-03-03T09:49:05.798Z,66.94
2018-03-03T09:50:05.959Z,65.81
2018-03-03T09:51:06.102Z,65.53
2018-03-03T09:52:06.256Z,65.62
2018-03-03T09:53:06.413Z,64.64
2018-03-03T09:54:06.564Z,65.11
2018-03-03T09:55:06.718Z,65.59
2018-03-03T09:56:06.871Z,65.62
2018-03-03T09:57:07.029Z,65.49
2018-03-03T09:58:07.180Z,66.35
2018-03-03T09:59:07.331Z,65.49
2018-03-03T10:00:07.484Z,66.91
2018-03-03T10:01:07.641Z,66.91
2018-03-03T10:02:07.788Z,67.10
2018-03-03T10:03:07.950Z,65.59
2018-03-03T10:04:08.103Z,66.91
2018-03-03T10:05:08.252Z,67.22
2018-03-03T10:06:08.401Z,66.94
2018-03-03T10:07:08.559Z,67.03
2018-03-03T10:08:08.703Z,66.85
2018-03-03T10:09:08.855Z,66.09
2018-03-03T10:10:09.001Z,65.24
2018-03-03T10:11:09.177Z,65.43
2018-03-03T10:12:09.323Z,65.53
2018-03-03T10:13:09.480Z,65.72
2018-03-03T10:14:09.631Z,66.00
2018-03-03T10:15:09.786Z,65.72
2018-03-03T10:16:09.938Z,64.39
2018-03-03T10:17:10.093Z,64.67
2018-03-03T10:18:10.251Z,64.39
2018-03-03T10:19:10.396Z,64.01
2018-03-03T10:20:10.552Z,63.92
2018-03-03T10:21:10.704Z,64.48
2018-03-03T10:22:10.862Z,64.11
2018-03-03T10:23:11.012Z,65.53
2018-03-03T10:24:11.169Z,65.34
2018-03-03T10:25:11.322Z,65.62
2018-03-03T10:26:11.470Z,66.38
2018-03-03T10:27:11.626Z,66.94
2018-03-03T10:28:11.778Z,67.32
2018-03-03T10:29:11.933Z,67.41
2018-03-03T10:30:12.086Z,67.32
2018-03-03T10:31:12.250Z,67.22
2018-03-03T10:32:12.401Z,66.66
2018-03-03T10:33:12.559Z,67.60
2018-03-03T10:34:12.718Z,66.66
2018-03-03T10:35:12.863Z,67.70
2018-03-03T10:36:13.017Z,67.60
2018-03-03T10:37:13.175Z,67.60
2018-03-03T10:38:13.326Z,66.94
2018-03-03T10:39:13.476Z,65.91
2018-03-03T10:40:13.634Z,65.53
2018-03-03T10:41:13.789Z,65.05
2018-03-03T10:42:13.946Z,65.15
2018-03-03T10:43:14.093Z,64.77
2018-03-03T10:44:14.249Z,65.81
2018-03-03T10:45:14.401Z,65.62
2018-03-03T10:46:14.547Z,65.43
2018-03-03T10:47:14.709Z,65.78
2018-03-03T10:48:14.868Z,65.78
2018-03-03T10:49:15.012Z,66.72
2018-03-03T10:50:15.165Z,67.47
2018-03-03T10:51:15.319Z,68.52
2018-03-03T10:52:15.474Z,68.86
2018-03-03T10:53:15.631Z,69.93
2018-03-03T10:54:15.792Z,71.35
2018-03-03T10:55:15.943Z,70.03
2018-03-03T10:56:16.098Z,70.69
2018-03-03T10:57:16.258Z,70.59
2018-03-03T10:58:16.404Z,69.68
2018-03-03T10:59:16.558Z,69.12
2018-03-03T11:00:16.712Z,68.27
2018-03-03T11:01:16.868Z,68.17
2018-03-03T11:02:17.019Z,66.82
2018-03-03T11:03:17.173Z,67.00
2018-03-03T11:04:17.335Z,67.89
2018-03-03T11:05:17.475Z,67.51
2018-03-03T11:06:17.630Z,68.08
2018-03-03T11:07:17.784Z,67.98
2018-03-03T11:08:17.938Z,68.65
2018-03-03T11:09:18.087Z,68.17
2018-03-03T11:10:18.246Z,67.89
2018-03-03T11:11:18.403Z,66.85
2018-03-03T11:12:18.551Z,67.32
2018-03-03T11:13:18.706Z,67.19
2018-03-03T11:14:18.859Z,67.79
2018-03-03T11:15:19.012Z,68.65
2018-03-03T11:16:19.168Z,67.60
2018-03-03T11:17:19.318Z,67.03
2018-03-03T11:18:19.476Z,67.32
2018-03-03T11:19:19.624Z,67.60
2018-03-03T11:20:19.777Z,67.41
2018-03-03T11:21:19.932Z,67.22
2018-03-03T11:22:20.132Z,66.09
2018-03-03T11:23:20.239Z,66.38
2018-03-03T11:24:20.393Z,67.22
2018-03-03T11:25:20.554Z,66.85
2018-03-03T11:26:20.696Z,66.94
2018-03-03T11:27:20.852Z,66.75
2018-03-03T11:28:21.005Z,65.81
2018-03-03T11:29:21.159Z,65.81
2018-03-03T11:30:21.308Z,65.15
2018-03-03T11:31:21.464Z,66.47
2018-03-03T11:32:21.625Z,66.00
2018-03-03T11:33:21.808Z,65.62
2018-03-03T11:34:21.923Z,66.00
2018-03-03T11:35:22.078Z,66.66
2018-03-03T11:36:22.236Z,66.66
2018-03-03T11:37:22.380Z,67.03
2018-03-03T11:38:22.540Z,67.03
2018-03-03T11:39:22.699Z,67.41
2018-03-03T11:40:22.847Z,67.38
2018-03-03T11:41:22.997Z,69.09
2018-03-03T11:42:23.152Z,68.61
2018-03-03T11:43:23.305Z,68.84
2018-03-03T11:44:23.463Z,69.12
2018-03-03T11:45:23.613Z,69.78
2018-03-03T11:46:23.770Z,68.84
2018-03-03T11:47:23.922Z,67.98
2018-03-03T11:48:24.075Z,66.75
2018-03-03T11:49:24.226Z,66.38
2018-03-03T11:50:24.379Z,66.75
2018-03-03T11:51:24.535Z,65.81
2018-03-03T11:52:24.697Z,65.43
2018-03-03T11:53:24.849Z,65.53
2018-03-03T11:54:25.007Z,66.22
2018-03-03T11:55:25.164Z,66.22
2018-03-03T11:56:25.311Z,64.77
2018-03-03T11:57:25.464Z,64.86
2018-03-03T11:58:25.618Z,65.24
2018-03-03T11:59:25.773Z,64.42
2018-03-03T12:00:25.922Z,64.61
2018-03-03T12:01:26.083Z,64.71
2018-03-03T12:02:26.240Z,64.71
2018-03-03T12:03:26.389Z,64.33
2018-03-03T12:04:26.543Z,63.48
2018-03-03T12:05:26.697Z,64.71
2018-03-03T12:06:26.852Z,65.18
2018-03-03T12:07:27.010Z,64.80
2018-03-03T12:08:27.167Z,63.73
2018-03-03T12:09:27.325Z,63.07
2018-03-03T12:10:27.476Z,64.80
2018-03-03T12:11:27.647Z,65.18
2018-03-03T12:12:27.781Z,63.92
2018-03-03T12:13:27.934Z,64.71
2018-03-03T12:14:28.089Z,65.37
2018-03-03T12:15:28.244Z,66.03
2018-03-03T12:16:28.398Z,64.61
2018-03-03T12:17:28.560Z,63.92
2018-03-03T12:18:28.711Z,63.73
2018-03-03T12:19:28.870Z,64.29
2018-03-03T12:20:29.028Z,65.53
2018-03-03T12:21:29.173Z,65.91
2018-03-03T12:22:29.328Z,65.53
2018-03-03T12:23:29.480Z,66.66
2018-03-03T12:24:29.635Z,65.75
2018-03-03T12:25:29.789Z,64.14
2018-03-03T12:26:29.943Z,63.39
2018-03-03T12:27:30.101Z,63.67
2018-03-03T12:28:30.248Z,63.10
2018-03-03T12:29:30.404Z,62.97
2018-03-03T12:30:30.560Z,63.64
2018-03-03T12:31:30.713Z,64.20
2018-03-03T12:32:30.865Z,64.99
2018-03-03T12:33:31.028Z,63.35
2018-03-03T12:34:31.182Z,63.64
2018-03-03T12:35:31.336Z,63.35
2018-03-03T12:36:31.497Z,64.29
2018-03-03T12:37:31.641Z,64.39
2018-03-03T12:38:31.795Z,64.96
2018-03-03T12:39:31.949Z,65.05
2018-03-03T12:40:32.104Z,65.15
2018-03-03T12:41:32.263Z,64.99
2018-03-03T12:42:32.422Z,64.52
2018-03-03T12:43:32.576Z,63.95
2018-03-03T12:44:32.730Z,63.67
2018-03-03T12:45:32.888Z,63.10
2018-03-03T12:46:33.037Z,62.82
2018-03-03T12:47:33.214Z,61.68
2018-03-03T12:48:33.345Z,60.89
2018-03-03T12:49:33.502Z,62.40
2018-03-03T12:50:33.648Z,63.10
2018-03-03T12:51:33.816Z,64.52
2018-03-03T12:52:33.969Z,63.92
2018-03-03T12:53:34.126Z,64.99
2018-03-03T12:54:34.284Z,64.48